Time;durP1;ratioP1;P1;durP2;ratioP2;P2;SDS_P1;SDS_P2;PMS_P1;PMS_P2;Temp;Humidity;BMP_temperature;BMP_pressure;BME280_temperature;BME280_humidity;BME280_pressure;Samples;Min_cycle;Max_cycle;Signal;HPM_P1;HPM_P2
2022/01/01 00:01:43;;;;;;;0.20;0.20;;;;;;;;;;4996408;28;20436;-90
2022/01/01 00:04:09;;;;;;;0.20;0.20;;;;;;;;;;4996447;28;20073;-91
2022/01/01 00:06:35;;;;;;;0.20;0.20;;;;;;;;;;4996371;28;20044;-90
2022/01/01 00:09:01;;;;;;;0.13;0.13;;;;;;;;;;4996287;28;20038;-91
2022/01/01 00:11:27;;;;;;;0.10;0.10;;;;;;;;;;4996178;28;20132;-91
2022/01/01 00:13:53;;;;;;;0.10;0.10;;;;;;;;;;4996784;28;20034;-90
2022/01/01 00:16:19;;;;;;;0.10;0.10;;;;;;;;;;5012116;28;20417;-92
2022/01/01 00:18:45;;;;;;;0.20;0.20;;;;;;;;;;4996111;28;20153;-91
2022/01/01 00:21:11;;;;;;;0.10;0.10;;;;;;;;;;4996442;28;20111;-91
2022/01/01 00:23:37;;;;;;;0.10;0.10;;;;;;;;;;4995949;28;20049;-91
2022/01/01 00:26:03;;;;;;;0.22;0.22;;;;;;;;;;4996139;28;20041;-91
2022/01/01 00:28:29;;;;;;;0.10;0.10;;;;;;;;;;4996450;28;20479;-92
2022/01/01 00:30:55;;;;;;;0.10;0.10;;;;;;;;;;4996460;28;20409;-91
2022/01/01 00:33:21;;;;;;;0.10;0.10;;;;;;;;;;4996532;28;20037;-91
2022/01/01 00:35:47;;;;;;;0.10;0.10;;;;;;;;;;4996187;28;20125;-91
2022/01/01 00:38:13;;;;;;;0.10;0.10;;;;;;;;;;4996068;28;20038;-91
2022/01/01 00:40:39;;;;;;;0.10;0.10;;;;;;;;;;4995811;28;20041;-92
2022/01/01 00:43:05;;;;;;;0.32;0.30;;;;;;;;;;4996061;28;20081;-91
2022/01/01 00:45:31;;;;;;;0.10;0.10;;;;;;;;;;4996325;28;20050;-92
2022/01/01 00:47:57;;;;;;;0.30;0.30;;;;;;;;;;4996879;28;20042;-92
2022/01/01 00:50:23;;;;;;;0.10;0.10;;;;;;;;;;4996387;28;20048;-92
2022/01/01 00:52:51;;;;;;;0.10;0.10;;;;;;;;;;4996095;28;20037;-92
2022/01/01 00:55:17;;;;;;;0.10;0.10;;;;;;;;;;4995569;28;20046;-91
2022/01/01 00:57:43;;;;;;;0.10;0.10;;;;;;;;;;5011980;28;20107;-91
2022/01/01 01:00:09;;;;;;;0.10;0.10;;;;;;;;;;4995916;28;20068;-91
2022/01/01 01:02:35;;;;;;;0.10;0.10;;;;;;;;;;4995735;28;20041;-91
2022/01/01 01:05:01;;;;;;;0.20;0.20;;;;;;;;;;4995502;28;20124;-91
2022/01/01 01:07:27;;;;;;;0.10;0.10;;;;;;;;;;5012072;28;20041;-90
2022/01/01 01:09:53;;;;;;;0.63;0.63;;;;;;;;;;4995527;28;20141;-90
2022/01/01 01:12:24;;;;;;;0.20;0.20;;;;;;;;;;4995042;28;20235;-91
2022/01/01 01:14:52;;;;;;;0.10;0.10;;;;;;;;;;4995846;28;20050;-90
2022/01/01 01:17:18;;;;;;;0.30;0.30;;;;;;;;;;4995148;28;20485;-90
2022/01/01 01:19:44;;;;;;;0.10;0.10;;;;;;;;;;4995165;28;20048;-90
2022/01/01 01:22:09;;;;;;;0.10;0.10;;;;;;;;;;4995073;28;20409;-90
2022/01/01 01:24:36;;;;;;;0.20;0.20;;;;;;;;;;4994948;28;20370;-90
2022/01/01 01:27:03;;;;;;;0.10;0.10;;;;;;;;;;4995036;28;20046;-90
2022/01/01 01:29:31;;;;;;;0.10;0.10;;;;;;;;;;4995228;28;20304;-92
2022/01/01 01:31:57;;;;;;;0.30;0.30;;;;;;;;;;4995408;28;20041;-90
2022/01/01 01:34:23;;;;;;;0.15;0.15;;;;;;;;;;4994710;28;20037;-90
2022/01/01 01:36:49;;;;;;;0.20;0.20;;;;;;;;;;4994846;28;20041;-90
2022/01/01 01:39:15;;;;;;;0.20;0.20;;;;;;;;;;4994769;28;20394;-90
2022/01/01 01:41:43;;;;;;;0.20;0.20;;;;;;;;;;4994573;28;20052;-90
2022/01/01 01:44:29;;;;;;;0.10;0.10;;;;;;;;;;5011059;28;20128;-90
2022/01/01 01:46:55;;;;;;;0.17;0.17;;;;;;;;;;5011354;28;20362;-90
2022/01/01 01:49:21;;;;;;;0.10;0.10;;;;;;;;;;4994756;28;20042;-91
2022/01/01 01:51:47;;;;;;;0.22;0.22;;;;;;;;;;4994809;28;20038;-91
2022/01/01 01:54:13;;;;;;;0.20;0.20;;;;;;;;;;4994597;28;20045;-90
2022/01/01 01:56:39;;;;;;;0.20;0.20;;;;;;;;;;4994955;28;20465;-90
2022/01/01 01:59:05;;;;;;;0.17;0.17;;;;;;;;;;4994591;28;20037;-90
2022/01/01 02:01:31;;;;;;;1.25;0.47;;;;;;;;;;5011387;28;20049;-90
2022/01/01 02:03:58;;;;;;;0.20;0.20;;;;;;;;;;4994955;28;20620;-90
2022/01/01 02:06:24;;;;;;;0.10;0.10;;;;;;;;;;4995485;28;20104;-90
2022/01/01 02:08:51;;;;;;;0.10;0.10;;;;;;;;;;4998450;28;20482;-90
2022/01/01 02:11:21;;;;;;;0.10;0.10;;;;;;;;;;4998583;28;20061;-91
2022/01/01 02:17:08;;;;;;;0.10;0.10;;;;;;;;;;4998445;28;20054;-91
2022/01/01 02:19:03;;;;;;;0.43;0.43;;;;;;;;;;5003969;28;20048;-90
2022/01/01 02:21:29;;;;;;;0.10;0.10;;;;;;;;;;4998441;28;20328;-91
2022/01/01 02:23:59;;;;;;;0.10;0.10;;;;;;;;;;4998232;28;20046;-91
2022/01/01 02:26:29;;;;;;;0.30;0.30;;;;;;;;;;4998831;28;20125;-91
2022/01/01 02:28:55;;;;;;;0.10;0.10;;;;;;;;;;4998184;28;20038;-90
2022/01/01 02:31:21;;;;;;;0.10;0.10;;;;;;;;;;4998025;28;20045;-90
2022/01/01 02:33:47;;;;;;;0.10;0.10;;;;;;;;;;4998160;28;20049;-91
2022/01/01 02:36:13;;;;;;;0.20;0.20;;;;;;;;;;4998291;28;20077;-91
2022/01/01 02:38:39;;;;;;;0.10;0.10;;;;;;;;;;4998497;28;20045;-91
2022/01/01 02:41:05;;;;;;;0.10;0.10;;;;;;;;;;4998181;28;20042;-90
2022/01/01 02:43:32;;;;;;;0.20;0.20;;;;;;;;;;4997915;28;20536;-90
2022/01/01 02:45:58;;;;;;;1.02;0.20;;;;;;;;;;4998176;28;20140;-91
2022/01/01 02:48:23;;;;;;;0.22;0.22;;;;;;;;;;4997666;28;20073;-91
2022/01/01 02:50:53;;;;;;;0.55;0.55;;;;;;;;;;4998261;28;20038;-91
2022/01/01 02:53:19;;;;;;;0.20;0.20;;;;;;;;;;4997933;28;20038;-91
2022/01/01 02:55:45;;;;;;;0.30;0.30;;;;;;;;;;4997565;28;20402;-91
2022/01/01 02:58:11;;;;;;;0.10;0.10;;;;;;;;;;4997661;28;20132;-91
2022/01/01 03:00:37;;;;;;;0.20;0.20;;;;;;;;;;4998020;28;20441;-91
2022/01/01 03:03:03;;;;;;;0.30;0.30;;;;;;;;;;4997467;28;20042;-90
2022/01/01 03:05:30;;;;;;;0.20;0.20;;;;;;;;;;4997580;28;20518;-91
2022/01/01 03:07:56;;;;;;;0.10;0.10;;;;;;;;;;4997784;28;20069;-91
2022/01/01 03:10:23;;;;;;;0.17;0.17;;;;;;;;;;5013648;28;20053;-91
2022/01/01 03:12:49;;;;;;;0.38;0.38;;;;;;;;;;4997592;28;20030;-91
2022/01/01 03:15:15;;;;;;;0.10;0.10;;;;;;;;;;4996939;28;20057;-90
2022/01/01 03:17:41;;;;;;;3.05;0.52;;;;;;;;;;4997737;28;20133;-91
2022/01/01 03:20:07;;;;;;;0.20;0.20;;;;;;;;;;5013234;28;20042;-92
2022/01/01 03:22:33;;;;;;;0.20;0.20;;;;;;;;;;4997971;28;20210;-92
2022/01/01 03:24:59;;;;;;;0.10;0.10;;;;;;;;;;4997548;28;20045;-91
2022/01/01 03:27:25;;;;;;;0.17;0.17;;;;;;;;;;4997748;28;20046;-92
2022/01/01 03:29:51;;;;;;;0.20;0.20;;;;;;;;;;4997579;28;20481;-91
2022/01/01 03:32:17;;;;;;;0.22;0.22;;;;;;;;;;4996898;28;20038;-91
2022/01/01 03:34:43;;;;;;;0.20;0.20;;;;;;;;;;4997531;28;20041;-91
2022/01/01 03:37:09;;;;;;;0.10;0.10;;;;;;;;;;4997284;28;20044;-91
2022/01/01 03:39:35;;;;;;;0.13;0.13;;;;;;;;;;4997359;28;20053;-92
2022/01/01 03:42:01;;;;;;;0.25;0.25;;;;;;;;;;4997425;28;20068;-91
2022/01/01 03:44:27;;;;;;;0.20;0.20;;;;;;;;;;4997187;28;20042;-91
2022/01/01 03:47:05;;;;;;;0.20;0.20;;;;;;;;;;4996978;28;20036;-91
2022/01/01 03:49:31;;;;;;;0.20;0.20;;;;;;;;;;4998663;28;20059;-91
2022/01/01 03:51:58;;;;;;;0.10;0.10;;;;;;;;;;4996705;28;20114;-91
2022/01/01 03:54:24;;;;;;;0.20;0.20;;;;;;;;;;4997255;28;20073;-91
2022/01/01 03:56:50;;;;;;;0.10;0.10;;;;;;;;;;4997066;28;20045;-91
2022/01/01 03:59:16;;;;;;;0.25;0.25;;;;;;;;;;4997021;28;20034;-91
2022/01/01 04:01:42;;;;;;;0.10;0.10;;;;;;;;;;4996864;28;20081;-92
2022/01/01 04:04:08;;;;;;;0.20;0.20;;;;;;;;;;4996900;28;20073;-92
2022/01/01 04:06:34;;;;;;;0.20;0.20;;;;;;;;;;4996900;28;20049;-91
2022/01/01 04:09:00;;;;;;;0.20;0.10;;;;;;;;;;4996934;28;20041;-92
2022/01/01 04:11:26;;;;;;;0.20;0.20;;;;;;;;;;4996476;28;20041;-91
2022/01/01 04:13:52;;;;;;;0.30;0.30;;;;;;;;;;4996213;28;20049;-90
2022/01/01 04:16:19;;;;;;;0.10;0.10;;;;;;;;;;4996182;28;20054;-91
2022/01/01 04:18:45;;;;;;;0.30;0.30;;;;;;;;;;4996097;28;20046;-91
2022/01/01 04:21:11;;;;;;;0.20;0.20;;;;;;;;;;4996705;28;20034;-91
2022/01/01 04:23:38;;;;;;;0.10;0.10;;;;;;;;;;5012294;28;20052;-90
2022/01/01 04:26:06;;;;;;;0.30;0.30;;;;;;;;;;4996978;28;20038;-91
2022/01/01 04:28:32;;;;;;;0.20;0.20;;;;;;;;;;4996773;28;20046;-91
2022/01/01 04:30:58;;;;;;;0.30;0.30;;;;;;;;;;4995013;28;20504;-91
2022/01/01 04:33:24;;;;;;;0.22;0.22;;;;;;;;;;4995974;28;20382;-91
2022/01/01 04:35:50;;;;;;;0.57;0.57;;;;;;;;;;5012407;28;20045;-90
2022/01/01 04:38:35;;;;;;;0.10;0.10;;;;;;;;;;4995831;28;20041;-91
2022/01/01 04:41:02;;;;;;;0.10;0.10;;;;;;;;;;4998281;28;20205;-90
2022/01/01 04:43:28;;;;;;;0.10;0.10;;;;;;;;;;4995486;28;20042;-91
2022/01/01 04:45:54;;;;;;;0.10;0.10;;;;;;;;;;4995914;28;20045;-91
2022/01/01 04:48:20;;;;;;;0.10;0.10;;;;;;;;;;4995910;28;20049;-91
2022/01/01 04:50:46;;;;;;;0.60;0.57;;;;;;;;;;4995814;28;20046;-91
2022/01/01 04:53:16;;;;;;;0.45;0.45;;;;;;;;;;4995924;28;20338;-91
2022/01/01 04:55:42;;;;;;;0.65;0.55;;;;;;;;;;4996795;28;20235;-91
2022/01/01 04:58:08;;;;;;;0.10;0.10;;;;;;;;;;4996157;28;20042;-92
2022/01/01 05:00:34;;;;;;;0.10;0.10;;;;;;;;;;4996038;28;20042;-92
2022/01/01 05:03:00;;;;;;;0.15;0.15;;;;;;;;;;4995664;28;20350;-91
2022/01/01 05:05:26;;;;;;;0.10;0.10;;;;;;;;;;4995765;28;20042;-92
2022/01/01 05:07:52;;;;;;;0.10;0.10;;;;;;;;;;4996131;28;20046;-91
2022/01/01 05:10:18;;;;;;;0.20;0.20;;;;;;;;;;4996052;28;20559;-92
2022/01/01 05:12:44;;;;;;;0.10;0.10;;;;;;;;;;4995691;28;20061;-92
2022/01/01 05:15:10;;;;;;;0.20;0.20;;;;;;;;;;4995377;28;20053;-91
2022/01/01 05:17:36;;;;;;;0.38;0.38;;;;;;;;;;4995657;28;20128;-91
2022/01/01 05:20:03;;;;;;;0.10;0.10;;;;;;;;;;4995531;28;20100;-91
2022/01/01 05:22:29;;;;;;;0.50;0.50;;;;;;;;;;5011526;28;20045;-90
2022/01/01 05:25:00;;;;;;;0.10;0.10;;;;;;;;;;4995595;28;20346;-92
2022/01/01 05:27:31;;;;;;;3.40;0.65;;;;;;;;;;5012131;28;20081;-92
2022/01/01 05:29:57;;;;;;;0.10;0.10;;;;;;;;;;4995824;28;20042;-92
2022/01/01 05:32:24;;;;;;;0.10;0.10;;;;;;;;;;4995457;28;20038;-91
2022/01/01 05:34:50;;;;;;;0.20;0.20;;;;;;;;;;4995775;28;20561;-92
2022/01/01 05:37:16;;;;;;;0.10;0.10;;;;;;;;;;4995381;28;20084;-92
2022/01/01 05:39:41;;;;;;;0.25;0.25;;;;;;;;;;4995594;28;20105;-92
2022/01/01 05:42:08;;;;;;;0.20;0.20;;;;;;;;;;4995777;28;20045;-92
2022/01/01 05:44:34;;;;;;;0.10;0.10;;;;;;;;;;4995307;28;20048;-93
2022/01/01 05:47:00;;;;;;;0.28;0.28;;;;;;;;;;4995649;28;20038;-93
2022/01/01 05:49:26;;;;;;;0.20;0.20;;;;;;;;;;4995477;28;20042;-93
2022/01/01 05:51:52;;;;;;;0.88;0.82;;;;;;;;;;4995330;28;20049;-92
2022/01/01 05:54:18;;;;;;;0.73;0.73;;;;;;;;;;4995367;28;20481;-92
2022/01/01 05:56:44;;;;;;;0.10;0.10;;;;;;;;;;4995546;28;20053;-92
2022/01/01 05:59:10;;;;;;;0.10;0.10;;;;;;;;;;4995500;28;20046;-92
2022/01/01 06:01:36;;;;;;;0.80;0.20;;;;;;;;;;5011684;28;20042;-92
2022/01/01 06:04:02;;;;;;;0.30;0.30;;;;;;;;;;4995021;28;20042;-92
2022/01/01 06:06:28;;;;;;;0.20;0.20;;;;;;;;;;4994660;28;20091;-91
2022/01/01 06:08:54;;;;;;;0.43;0.43;;;;;;;;;;4994893;28;20042;-92
2022/01/01 06:11:20;;;;;;;0.63;0.63;;;;;;;;;;4994714;28;20171;-91
2022/01/01 06:13:46;;;;;;;0.10;0.10;;;;;;;;;;4994871;28;20247;-91
2022/01/01 06:16:12;;;;;;;0.10;0.10;;;;;;;;;;5010711;28;20470;-90
2022/01/01 06:18:38;;;;;;;0.10;0.10;;;;;;;;;;4994491;28;20172;-92
2022/01/01 06:21:04;;;;;;;0.10;0.10;;;;;;;;;;4995202;28;20374;-91
2022/01/01 06:23:48;;;;;;;0.20;0.20;;;;;;;;;;4994888;28;20096;-95
2022/01/01 06:26:15;;;;;;;0.10;0.10;;;;;;;;;;4997541;28;20042;-92
2022/01/01 06:28:41;;;;;;;0.17;0.17;;;;;;;;;;4994659;28;20042;-92
2022/01/01 06:31:07;;;;;;;1.20;0.45;;;;;;;;;;4994805;28;20049;-92
2022/01/01 06:33:33;;;;;;;0.20;0.20;;;;;;;;;;4995026;28;20050;-92
2022/01/01 06:35:59;;;;;;;0.10;0.10;;;;;;;;;;4995075;28;20084;-92
2022/01/01 06:38:25;;;;;;;0.10;0.10;;;;;;;;;;4995144;28;20071;-92
2022/01/01 06:40:51;;;;;;;0.10;0.10;;;;;;;;;;4995063;28;20096;-92
2022/01/01 06:43:18;;;;;;;0.10;0.10;;;;;;;;;;5010800;28;20482;-92
2022/01/01 06:45:44;;;;;;;0.10;0.10;;;;;;;;;;4994495;28;20046;-89
2022/01/01 06:48:10;;;;;;;0.10;0.10;;;;;;;;;;4994381;28;20048;-90
2022/01/01 06:50:39;;;;;;;0.10;0.10;;;;;;;;;;4993760;28;20050;-87
2022/01/01 06:53:05;;;;;;;0.20;0.20;;;;;;;;;;5010326;28;20127;-86
2022/01/01 06:55:31;;;;;;;0.10;0.10;;;;;;;;;;4997587;28;20094;-89
2022/01/01 06:57:57;;;;;;;0.10;0.10;;;;;;;;;;4997542;28;20041;-88
2022/01/01 07:00:23;;;;;;;0.10;0.10;;;;;;;;;;4997276;28;20505;-88
2022/01/01 07:02:49;;;;;;;0.28;0.20;;;;;;;;;;4997703;28;20489;-89
2022/01/01 07:05:16;;;;;;;0.10;0.10;;;;;;;;;;4997415;28;20496;-89
2022/01/01 07:07:41;;;;;;;0.10;0.10;;;;;;;;;;5013315;28;20095;-88
2022/01/01 07:10:08;;;;;;;0.10;0.10;;;;;;;;;;4997108;28;20034;-88
2022/01/01 07:12:35;;;;;;;0.10;0.10;;;;;;;;;;4997484;28;20405;-89
2022/01/01 07:15:01;;;;;;;0.10;0.10;;;;;;;;;;4997018;28;20056;-89
2022/01/01 07:17:27;;;;;;;0.10;0.10;;;;;;;;;;4997108;28;20100;-89
2022/01/01 07:19:53;;;;;;;0.10;0.10;;;;;;;;;;4997303;28;20053;-89
2022/01/01 07:22:19;;;;;;;0.10;0.10;;;;;;;;;;4997160;28;20056;-89
2022/01/01 07:24:45;;;;;;;0.10;0.10;;;;;;;;;;4997043;28;20037;-89
2022/01/01 07:27:12;;;;;;;0.10;0.10;;;;;;;;;;4996857;28;20095;-90
2022/01/01 07:29:38;;;;;;;0.10;0.10;;;;;;;;;;4997059;28;20369;-90
2022/01/01 07:32:04;;;;;;;0.10;0.10;;;;;;;;;;4996796;28;20034;-90
2022/01/01 07:34:30;;;;;;;0.30;0.30;;;;;;;;;;4996910;28;20042;-90
2022/01/01 07:36:56;;;;;;;0.10;0.10;;;;;;;;;;5013014;28;20056;-90
2022/01/01 07:39:22;;;;;;;0.10;0.10;;;;;;;;;;4997068;28;20072;-90
2022/01/01 07:41:48;;;;;;;0.10;0.10;;;;;;;;;;4997112;28;20085;-89
2022/01/01 07:44:17;;;;;;;0.10;0.10;;;;;;;;;;4996445;28;20038;-90
2022/01/01 07:46:43;;;;;;;0.10;0.10;;;;;;;;;;4996879;28;20060;-89
2022/01/01 07:49:09;;;;;;;0.10;0.10;;;;;;;;;;4996733;28;20167;-90
2022/01/01 07:51:35;;;;;;;0.10;0.10;;;;;;;;;;4996524;28;20042;-90
2022/01/01 07:54:00;;;;;;;0.20;0.20;;;;;;;;;;4997329;28;20080;-89
2022/01/01 07:56:26;;;;;;;0.10;0.10;;;;;;;;;;4996961;28;20458;-89
2022/01/01 07:58:52;;;;;;;0.35;0.35;;;;;;;;;;4996899;28;20136;-89
2022/01/01 08:01:18;;;;;;;0.10;0.10;;;;;;;;;;4996738;28;20045;-89
2022/01/01 08:03:47;;;;;;;0.10;0.10;;;;;;;;;;4997175;28;20042;-90
2022/01/01 08:06:12;;;;;;;0.20;0.20;;;;;;;;;;4997037;28;20057;-90
2022/01/01 08:08:38;;;;;;;0.10;0.10;;;;;;;;;;4996546;28;20053;-90
2022/01/01 08:11:04;;;;;;;0.13;0.13;;;;;;;;;;4996451;28;20053;-90
2022/01/01 08:13:35;;;;;;;0.10;0.10;;;;;;;;;;4996113;28;20037;-90
2022/01/01 08:16:01;;;;;;;0.20;0.20;;;;;;;;;;4996788;28;20420;-90
2022/01/01 08:18:28;;;;;;;0.10;0.10;;;;;;;;;;4996198;28;20065;-90
2022/01/01 08:20:54;;;;;;;0.10;0.10;;;;;;;;;;4996513;28;20042;-90
2022/01/01 08:23:19;;;;;;;0.10;0.10;;;;;;;;;;4996311;28;20041;-90
2022/01/01 08:25:45;;;;;;;0.10;0.10;;;;;;;;;;4996297;28;20103;-90
2022/01/01 08:28:11;;;;;;;0.10;0.10;;;;;;;;;;4996344;28;20450;-90
2022/01/01 08:30:37;;;;;;;0.10;0.10;;;;;;;;;;4995999;28;20485;-90
2022/01/01 08:33:03;;;;;;;0.10;0.10;;;;;;;;;;4995976;28;20065;-90
2022/01/01 08:35:33;;;;;;;0.20;0.20;;;;;;;;;;4995842;28;20041;-91
2022/01/01 08:38:00;;;;;;;0.15;0.15;;;;;;;;;;4995812;28;20129;-90
2022/01/01 08:40:26;;;;;;;0.20;0.20;;;;;;;;;;5012023;28;20049;-91
2022/01/01 08:42:52;;;;;;;0.10;0.10;;;;;;;;;;4995729;28;20042;-90
2022/01/01 08:45:18;;;;;;;0.10;0.10;;;;;;;;;;4995584;28;20103;-90
2022/01/01 08:47:44;;;;;;;0.95;0.38;;;;;;;;;;4995673;28;20053;-90
2022/01/01 08:50:10;;;;;;;0.20;0.20;;;;;;;;;;4995435;28;20042;-90
2022/01/01 08:52:36;;;;;;;0.10;0.10;;;;;;;;;;4995320;28;20038;-90
2022/01/01 08:55:02;;;;;;;0.10;0.10;;;;;;;;;;5011906;28;20057;-90
2022/01/01 08:57:30;;;;;;;0.20;0.20;;;;;;;;;;4995713;28;20037;-90
2022/01/01 08:59:56;;;;;;;0.10;0.10;;;;;;;;;;4995888;28;20120;-90
2022/01/01 09:02:21;;;;;;;0.20;0.20;;;;;;;;;;5011662;28;20127;-89
2022/01/01 09:04:47;;;;;;;0.10;0.10;;;;;;;;;;4995508;28;20061;-89
2022/01/01 09:07:13;;;;;;;0.20;0.20;;;;;;;;;;4995751;28;20068;-90
2022/01/01 09:09:40;;;;;;;0.20;0.20;;;;;;;;;;4995056;28;20493;-89
2022/01/01 09:12:07;;;;;;;0.20;0.20;;;;;;;;;;4995418;28;20038;-90
2022/01/01 09:14:33;;;;;;;0.10;0.10;;;;;;;;;;4995613;28;20030;-90
2022/01/01 09:16:59;;;;;;;0.30;0.30;;;;;;;;;;4994546;28;20567;-90
2022/01/01 09:19:26;;;;;;;0.10;0.10;;;;;;;;;;4995600;28;20057;-90
2022/01/01 09:21:52;;;;;;;0.20;0.20;;;;;;;;;;4995482;28;20446;-90
2022/01/01 09:24:18;;;;;;;0.10;0.10;;;;;;;;;;4995194;28;20038;-90
2022/01/01 09:26:44;;;;;;;0.10;0.10;;;;;;;;;;4995357;28;20464;-89
2022/01/01 09:29:10;;;;;;;0.35;0.35;;;;;;;;;;5011698;28;20049;-89
2022/01/01 09:31:41;;;;;;;0.10;0.10;;;;;;;;;;4994787;28;20441;-90
2022/01/01 09:34:07;;;;;;;0.25;0.20;;;;;;;;;;4995546;28;20371;-90
2022/01/01 09:36:34;;;;;;;0.10;0.10;;;;;;;;;;4995067;28;20034;-90
2022/01/01 09:38:59;;;;;;;0.20;0.20;;;;;;;;;;4995042;28;20136;-90
2022/01/01 09:41:25;;;;;;;0.10;0.10;;;;;;;;;;4995302;28;20114;-90
2022/01/01 09:43:55;;;;;;;0.10;0.10;;;;;;;;;;4995184;28;20042;-90
2022/01/01 09:46:20;;;;;;;0.10;0.10;;;;;;;;;;4994840;28;20505;-90
2022/01/01 09:48:46;;;;;;;0.10;0.10;;;;;;;;;;4994844;28;20038;-90
2022/01/01 09:51:14;;;;;;;0.10;0.10;;;;;;;;;;4995024;28;20452;-90
2022/01/01 09:53:40;;;;;;;0.20;0.20;;;;;;;;;;4994995;28;20489;-89
2022/01/01 09:56:06;;;;;;;0.20;0.20;;;;;;;;;;4994586;28;20038;-90
2022/01/01 09:58:32;;;;;;;0.15;0.15;;;;;;;;;;4978492;28;20046;-90
2022/01/01 10:00:59;;;;;;;0.13;0.13;;;;;;;;;;4994724;28;20516;-90
2022/01/01 10:03:35;;;;;;;0.10;0.10;;;;;;;;;;4994891;28;20393;-90
2022/01/01 10:06:02;;;;;;;0.30;0.30;;;;;;;;;;4994443;28;20056;-89
2022/01/01 10:08:28;;;;;;;0.15;0.15;;;;;;;;;;4994729;28;20053;-89
2022/01/01 10:10:55;;;;;;;0.10;0.10;;;;;;;;;;4994582;28;20049;-90
2022/01/01 10:13:31;;;;;;;0.20;0.20;;;;;;;;;;4994640;28;20046;-90
2022/01/01 10:15:58;;;;;;;0.10;0.10;;;;;;;;;;5010738;28;20153;-90
2022/01/01 10:18:31;;;;;;;0.20;0.20;;;;;;;;;;4994306;28;20053;-89
2022/01/01 10:21:04;;;;;;;0.25;0.25;;;;;;;;;;4994543;28;20096;-90
2022/01/01 10:23:31;;;;;;;0.13;0.13;;;;;;;;;;4994490;28;20042;-90
2022/01/01 10:29:03;;;;;;;0.10;0.10;;;;;;;;;;4998298;28;20490;-89
2022/01/01 10:31:29;;;;;;;0.20;0.20;;;;;;;;;;4998213;28;20041;-90
2022/01/01 10:33:55;;;;;;;0.10;0.10;;;;;;;;;;4998029;28;20072;-89
2022/01/01 10:36:21;;;;;;;0.17;0.17;;;;;;;;;;5014564;28;20038;-90
2022/01/01 10:38:47;;;;;;;0.30;0.30;;;;;;;;;;4998097;28;20486;-89
2022/01/01 10:41:15;;;;;;;0.20;0.20;;;;;;;;;;4997865;28;20137;-90
2022/01/01 10:43:42;;;;;;;0.10;0.10;;;;;;;;;;4998148;28;20045;-90
2022/01/01 10:46:15;;;;;;;0.10;0.10;;;;;;;;;;4998034;28;20436;-89
2022/01/01 10:48:54;;;;;;;0.10;0.10;;;;;;;;;;4997712;28;20058;-90
2022/01/01 10:51:20;;;;;;;0.10;0.10;;;;;;;;;;4999498;28;20129;-89
2022/01/01 10:53:46;;;;;;;0.10;0.10;;;;;;;;;;4997504;28;20042;-90
2022/01/01 10:56:20;;;;;;;0.10;0.10;;;;;;;;;;4997447;28;20042;-90
2022/01/01 10:58:46;;;;;;;0.10;0.10;;;;;;;;;;4997726;28;20038;-90
2022/01/01 11:01:12;;;;;;;0.10;0.10;;;;;;;;;;4997757;28;20049;-90
2022/01/01 11:03:38;;;;;;;0.10;0.10;;;;;;;;;;4997898;28;20081;-90
2022/01/01 11:06:05;;;;;;;0.10;0.10;;;;;;;;;;4997865;28;20046;-90
2022/01/01 11:08:31;;;;;;;0.20;0.20;;;;;;;;;;4997638;28;20519;-90
2022/01/01 11:10:57;;;;;;;0.20;0.20;;;;;;;;;;4997931;28;20101;-89
2022/01/01 11:13:23;;;;;;;0.10;0.10;;;;;;;;;;4997624;28;20525;-90
2022/01/01 11:15:49;;;;;;;0.10;0.10;;;;;;;;;;4997528;28;20390;-89
2022/01/01 11:18:15;;;;;;;0.10;0.10;;;;;;;;;;4997374;28;20052;-90
2022/01/01 11:20:41;;;;;;;0.10;0.10;;;;;;;;;;4997378;28;20046;-90
2022/01/01 11:23:08;;;;;;;0.10;0.10;;;;;;;;;;4997256;28;20046;-90
2022/01/01 11:25:34;;;;;;;0.10;0.10;;;;;;;;;;4997526;28;20382;-89
2022/01/01 11:28:00;;;;;;;0.10;0.10;;;;;;;;;;4997380;28;20149;-90
2022/01/01 11:30:28;;;;;;;0.10;0.10;;;;;;;;;;4996883;28;20133;-89
2022/01/01 11:32:54;;;;;;;0.20;0.20;;;;;;;;;;4996942;28;20045;-91
2022/01/01 11:35:21;;;;;;;0.28;0.28;;;;;;;;;;4997067;28;20037;-90
2022/01/01 11:37:54;;;;;;;0.10;0.10;;;;;;;;;;4997354;28;20327;-90
2022/01/01 11:40:20;;;;;;;0.10;0.10;;;;;;;;;;4996537;28;20053;-89
2022/01/01 11:42:46;;;;;;;0.10;0.10;;;;;;;;;;4997010;28;20401;-90
2022/01/01 11:45:20;;;;;;;0.10;0.10;;;;;;;;;;4996657;28;20052;-90
2022/01/01 11:47:46;;;;;;;0.10;0.10;;;;;;;;;;4998261;28;20508;-90
2022/01/01 11:50:15;;;;;;;0.10;0.10;;;;;;;;;;4996535;28;20073;-90
2022/01/01 11:52:41;;;;;;;0.15;0.15;;;;;;;;;;5009913;28;20049;-90
2022/01/01 11:55:12;;;;;;;0.10;0.10;;;;;;;;;;5012962;28;20402;-89
2022/01/01 11:57:38;;;;;;;0.10;0.10;;;;;;;;;;4996663;28;20170;-89
2022/01/01 12:00:10;;;;;;;0.25;0.25;;;;;;;;;;4997208;28;20052;-90
2022/01/01 12:02:37;;;;;;;0.10;0.10;;;;;;;;;;4998895;28;20551;-90
2022/01/01 12:05:07;;;;;;;0.15;0.15;;;;;;;;;;4999552;28;20133;-90
2022/01/01 12:07:33;;;;;;;0.17;0.17;;;;;;;;;;5010360;28;20065;-90
2022/01/01 12:10:06;;;;;;;0.10;0.10;;;;;;;;;;5018056;28;20101;-90
2022/01/01 12:12:32;;;;;;;;;;;;;;;;;;5022352;28;20123;-90
2022/01/01 12:14:58;;;;;;;0.10;0.10;;;;;;;;;;5012253;28;20179;-90
2022/01/01 12:17:23;;;;;;;0.22;0.22;;;;;;;;;;4995951;28;20485;-90
2022/01/01 12:19:49;;;;;;;0.10;0.10;;;;;;;;;;4995763;28;20052;-90
2022/01/01 12:22:15;;;;;;;0.10;0.10;;;;;;;;;;4996052;28;20129;-90
2022/01/01 12:24:42;;;;;;;0.10;0.10;;;;;;;;;;4995889;28;20041;-90
2022/01/01 12:27:11;;;;;;;0.10;0.10;;;;;;;;;;4996138;28;20045;-89
2022/01/01 12:29:37;;;;;;;0.10;0.10;;;;;;;;;;4995975;28;20038;-89
2022/01/01 12:32:07;;;;;;;0.10;0.10;;;;;;;;;;4995745;28;20194;-89
2022/01/01 12:34:34;;;;;;;0.10;0.10;;;;;;;;;;4996501;28;20401;-90
2022/01/01 12:37:00;;;;;;;0.13;0.13;;;;;;;;;;4995904;28;20048;-89
2022/01/01 12:39:26;;;;;;;0.10;0.10;;;;;;;;;;4995972;28;20077;-90
2022/01/01 12:41:55;;;;;;;0.10;0.10;;;;;;;;;;4995866;28;20042;-89
2022/01/01 12:44:23;;;;;;;0.10;0.10;;;;;;;;;;4995762;28;20189;-90
2022/01/01 12:46:50;;;;;;;0.10;0.10;;;;;;;;;;4995909;28;20087;-90
2022/01/01 12:49:16;;;;;;;0.10;0.10;;;;;;;;;;4995709;28;20042;-90
2022/01/01 12:51:42;;;;;;;0.10;0.10;;;;;;;;;;4994392;28;20045;-89
2022/01/01 12:54:09;;;;;;;0.10;0.10;;;;;;;;;;5011839;28;20125;-90
2022/01/01 12:56:36;;;;;;;0.10;0.10;;;;;;;;;;4995374;28;20113;-89
2022/01/01 12:59:08;;;;;;;0.10;0.10;;;;;;;;;;4995299;28;20480;-90
2022/01/01 13:01:37;;;;;;;0.10;0.10;;;;;;;;;;4995783;28;20049;-89
2022/01/01 13:04:10;;;;;;;0.10;0.10;;;;;;;;;;5011827;28;20085;-90
2022/01/01 13:06:37;;;;;;;0.10;0.10;;;;;;;;;;4995313;28;20092;-89
2022/01/01 13:09:07;;;;;;;0.10;0.10;;;;;;;;;;4995218;28;20081;-90
2022/01/01 13:11:33;;;;;;;0.10;0.10;;;;;;;;;;5011301;28;20049;-90
2022/01/01 13:13:59;;;;;;;0.10;0.10;;;;;;;;;;4994972;28;20041;-89
2022/01/01 13:16:25;;;;;;;0.10;0.10;;;;;;;;;;4994780;28;20394;-89
2022/01/01 13:18:51;;;;;;;0.10;0.10;;;;;;;;;;4995157;28;20052;-89
2022/01/01 13:21:18;;;;;;;0.10;0.10;;;;;;;;;;4994813;28;20045;-89
2022/01/01 13:23:44;;;;;;;0.10;0.10;;;;;;;;;;4994867;28;20050;-90
2022/01/01 13:26:10;;;;;;;0.10;0.10;;;;;;;;;;4994746;28;20096;-89
2022/01/01 13:28:36;;;;;;;0.10;0.10;;;;;;;;;;4994812;28;20041;-89
2022/01/01 13:31:05;;;;;;;0.10;0.10;;;;;;;;;;4994910;28;20287;-90
2022/01/01 13:33:31;;;;;;;0.10;0.10;;;;;;;;;;4994658;28;20481;-89
2022/01/01 13:35:58;;;;;;;0.10;0.10;;;;;;;;;;4994830;28;20049;-89
2022/01/01 13:38:24;;;;;;;0.10;0.10;;;;;;;;;;4994701;28;20042;-90
2022/01/01 13:40:51;;;;;;;0.10;0.10;;;;;;;;;;5011033;28;20124;-90
2022/01/01 13:43:17;;;;;;;0.10;0.10;;;;;;;;;;4994597;28;20046;-90
2022/01/01 13:45:43;;;;;;;0.10;0.10;;;;;;;;;;4994895;28;20125;-90
2022/01/01 13:48:10;;;;;;;0.10;0.10;;;;;;;;;;4994711;28;20129;-89
2022/01/01 13:50:47;;;;;;;0.20;0.20;;;;;;;;;;4994752;28;20050;-90
2022/01/01 13:53:14;;;;;;;0.10;0.10;;;;;;;;;;5011104;28;20038;-90
2022/01/01 13:55:55;;;;;;;0.10;0.10;;;;;;;;;;4995061;28;20037;-90
2022/01/01 13:58:22;;;;;;;0.10;0.10;;;;;;;;;;4994808;28;20045;-89
2022/01/01 14:00:55;;;;;;;0.20;0.20;;;;;;;;;;4994827;28;20370;-90
2022/01/01 14:03:23;;;;;;;0.10;0.10;;;;;;;;;;5012634;28;20041;-89
2022/01/01 14:05:49;;;;;;;0.10;0.10;;;;;;;;;;5014723;28;20477;-90
2022/01/01 14:08:17;;;;;;;0.10;0.10;;;;;;;;;;4998424;28;20138;-89
2022/01/01 14:10:43;;;;;;;0.10;0.10;;;;;;;;;;4999052;28;20176;-90
2022/01/01 14:13:09;;;;;;;0.10;0.10;;;;;;;;;;4998305;28;20100;-89
2022/01/01 14:15:37;;;;;;;0.10;0.10;;;;;;;;;;4998111;28;20050;-90
2022/01/01 14:18:07;;;;;;;0.10;0.10;;;;;;;;;;4998972;28;20408;-89
2022/01/01 14:20:53;;;;;;;0.10;0.10;;;;;;;;;;4998365;28;20046;-89
2022/01/01 14:23:25;;;;;;;0.10;0.10;;;;;;;;;;4999150;28;20045;-89
2022/01/01 14:26:05;;;;;;;0.20;0.20;;;;;;;;;;5014356;28;20037;-89
2022/01/01 14:28:31;;;;;;;0.10;0.10;;;;;;;;;;4998062;28;20045;-90
2022/01/01 14:30:58;;;;;;;0.10;0.10;;;;;;;;;;4997966;28;20068;-90
2022/01/01 14:33:24;;;;;;;0.10;0.10;;;;;;;;;;4997775;28;20042;-90
2022/01/01 14:35:50;;;;;;;0.10;0.10;;;;;;;;;;4998128;28;20034;-90
2022/01/01 14:38:16;;;;;;;0.10;0.10;;;;;;;;;;4997858;28;20070;-89
2022/01/01 14:40:42;;;;;;;0.10;0.10;;;;;;;;;;4997951;28;20176;-90
2022/01/01 14:43:08;;;;;;;0.10;0.10;;;;;;;;;;4997727;28;20054;-90
2022/01/01 14:45:35;;;;;;;0.10;0.10;;;;;;;;;;4997816;28;20351;-89
2022/01/01 14:48:04;;;;;;;0.10;0.10;;;;;;;;;;4997873;28;20506;-89